Pagina principală
METAR-TAF:

METAR-TAF

Aeroporturi :

Midway, Statele Unite ale Americii

Latitudine: 28-13N, longitudine: 177-22W, elevație: 4 m

Observații meteo curente

Raportul a fost făcut în urmă cu 23 de minute, la 11:56 UTC
Vânt 4 kt de la Est/Nord-est
Temperatură 25°C
Umiditate 89%
Presiune 1014 hPa
Vizibilitate: 16.1 km
Nori puțini la o înălțime de 2600 picior
Nori împrăștiați la o înălțime de 11000 picior

METAR: PMDY 281156Z AUTO 06004KT 10SM FEW026 SCT110 25/23 A2995 RMK AO2 SLP142 60000 70011 T02500233 10261 20244 58001 TSNO

Ora: 02:19 (12:19 UTC)

Prognoză

Raportul a fost făcut în urmă cu 54 de minute, la 11:25 UTC
Prognoză valabilă de la 28 ora 12 UTC la 29 ora 12 UTC
Vânt 4 kt de la Sud/Sud-vest
Vizibilitate: 9.7 km
Nori împrăștiați la o înălțime de 2500 picior, Cumulonimbus.
Nori fragmentați la o înălțime de 4000 picior
averse de ploaie slabă, oraj în apropiere

TAF: PMDY 281125Z 2812/2912 20004KT 6SM -SHRA VCTS SCT025CB BKN040

Observații și prognoze meteo pentru peste 4.000 de aeroporturi (rapoarte METAR și TAF).

Stațiile disponibile sunt reprezentate pe hartă prin puncte galbene și roșii.

Țineți indicatorul mouse-ului pe punctul dorit pentru a vedea denumirea stației.

Apoi, faceți clic pentru a vedea observațiile și prognozele meteorologice.

Pentru a schimba harta: Pentru mărire, faceți clic pe butoanele verzi cu cruce neagră; pentru micșorare, pe butonul verde cu o liniuță; pentru hărți învecinate, pe săgețile verzi.


METAR-TAF: